Data for 05/25/2016

Time Sea-Level Adjusted Pressure Absolute Pressure Temperature Relative Humidity Dew Point   
(mb) (inHg) (mb) (inHg) (C) (F) (%) (C) (F)
00:05 1016 30 845 24.95 5.7 42.3 81 2.8 37
00:10 1016 30 845 24.95 5.4 41.7 82 2.6 36.7
00:15 1016 30 845 24.95 5.2 41.3 83 2.5 36.6
00:20 1016 30 845 24.95 5.1 41.2 83 2.5 36.5
00:25 1016 30 845 24.95 5.1 41.2 83 2.4 36.3
00:30 1016 30 845 24.95 5.1 41.3 82 2.3 36.2
00:35 1016 30 845 24.95 5.2 41.3 82 2.3 36.2
00:40 1016 30 845 24.95 5.2 41.3 82 2.3 36.2
00:45 1016 30 845 24.95 5 41 81 2.1 35.8
00:50 1016 30 845 24.95 5 40.9 81 2 35.6
00:55 1016 30 845 24.95 5 41 81 1.9 35.5
01:00 1016 30 845 24.95 5 41 81 2 35.6
01:05 1016 30 845 24.95 5 41.1 80 1.9 35.4
01:10 1016 30 845 24.95 5.1 41.2 80 2 35.5
01:15 1016 30 845 24.95 5 41.1 80 1.9 35.5
01:20 1016 30 845 24.95 4.9 40.9 81 1.9 35.5
01:25 1016 30 845 24.95 4.9 40.7 81 1.8 35.3
01:30 1016 30 845 24.95 4.8 40.6 80 1.7 35
01:35 1016 30 845 24.95 4.9 40.8 80 1.6 34.9
01:40 1016 30 845 24.95 4.7 40.5 81 1.8 35.2
01:45 1016 30 845 24.95 4.4 39.9 82 1.6 34.8
01:50 1016 30 845 24.95 4.3 39.8 82 1.5 34.7
01:55 1016 30 845 24.95 4.4 40 81 1.4 34.5
02:00 1016 30 845 24.95 4.6 40.3 81 1.5 34.8
02:05 1016 30 845 24.95 4.5 40.1 81 1.5 34.8
02:10 1016 30 845 24.95 4.6 40.2 80 1.4 34.6
02:15 1016 30 845 24.95 4.8 40.7 79 1.5 34.7
02:20 1016 30 845 24.95 4.9 40.8 79 1.6 34.9
02:25 1016 30 845 24.95 5 41 79 1.7 35
02:30 1016 30 845 24.95 4.9 40.9 79 1.6 34.8
02:35 1016 30 845 24.95 5 40.9 79 1.6 34.9
02:40 1016 30 845 24.95 4.9 40.8 79 1.6 34.8
02:45 1016 30 845 24.95 5 41 78 1.6 34.8
02:50 1016 30 845 24.95 5.1 41.1 77 1.4 34.6
02:55 1016 30 845 24.95 5.1 41.2 78 1.6 34.8
03:00 1016 30 845 24.95 4.9 40.9 79 1.5 34.8
03:05 1016 30 845 24.95 4.6 40.3 80 1.4 34.5
03:10 1016 30 845 24.95 4.6 40.2 80 1.4 34.5
03:15 1016 30 845 24.95 4.6 40.4 79 1.4 34.4
03:20 1016 30 845 24.95 4.7 40.4 79 1.4 34.5
03:25 1016 30 845 24.95 4.7 40.5 79 1.4 34.6
03:30 1016 30 845 24.95 4.6 40.2 80 1.5 34.7
03:35 1016 30 845 24.95 4.6 40.2 80 1.3 34.4
03:40 1016 30 845 24.95 4.6 40.4 79 1.4 34.5
03:45 1016 30 845 24.95 4.7 40.4 80 1.4 34.6
03:50 1016 30 845 24.95 4.7 40.4 80 1.5 34.7
03:55 1016 30 845 24.95 4.7 40.4 81 1.6 35
04:00 1016 30 845 24.95 4.6 40.4 81 1.6 34.9
04:05 1016 30 845 24.95 4.7 40.4 81 1.7 35.1
04:10 1016 30 845 24.95 4.6 40.3 82 1.8 35.2
04:15 1016 30 845 24.95 4.6 40.2 82 1.7 35
04:20 1016 30 845 24.95 4.6 40.3 82 1.8 35.2
04:25 1016 30 845 24.95 4.6 40.3 82 1.8 35.2
04:30 1016 30 845 24.95 4.6 40.3 82 1.8 35.3
04:35 1016 30 845 24.95 4.6 40.2 83 1.9 35.4
04:40 1016 30 845 24.95 4.5 40.2 82 1.8 35.3
04:45 1016 30 845 24.95 4.6 40.3 82 1.9 35.4
04:50 1016 30 845 24.95 4.6 40.3 82 1.9 35.4
04:55 1016 30 845 24.95 4.7 40.5 82 1.9 35.4
05:00 1016 30 845 24.95 4.9 40.7 81 1.9 35.4
05:05 1016 30 845 24.95 5.1 41.1 80 1.9 35.5
05:10 1016 30 845 24.95 5.2 41.4 80 2.1 35.8
05:15 1016 30 845 24.95 5 41 82 2.2 35.9
05:20 1016 30 845 24.95 4.8 40.7 83 2.1 35.8
05:25 1016 30 845 24.95 4.8 40.7 83 2.2 35.9
05:30 1016 30 845 24.95 4.9 40.8 83 2.2 36
05:35 1016 30 845 24.95 4.9 40.8 82 2.1 35.9
05:40 1016 30 845 24.95 4.9 40.9 83 2.2 36
05:45 1016 30 845 24.95 5 41 83 2.3 36.1
05:50 1016 30 846 24.98 5.1 41.1 82 2.2 36
05:55 1016 30 846 24.98 5.1 41.2 82 2.2 36
06:00 1016 30 846 24.98 5.2 41.4 81 2.2 36
06:05 1016 30 846 24.98 5.5 41.8 80 2.3 36.2
06:10 1016 30 846 24.98 5.6 42.1 80 2.5 36.5
06:15 1017 30.03 846 24.98 5.9 42.6 80 2.7 36.9
06:20 1017 30.03 846 24.98 6.1 43 78 2.5 36.5
06:25 1017 30.03 846 24.98 6.4 43.6 75 2.4 36.3
06:30 1017 30.03 846 24.98 6.7 44 75 2.5 36.5
06:35 1017 30.03 846 24.98 7 44.6 74 2.6 36.8
06:40 1017 30.03 846 24.98 7.2 45 72 2.6 36.6
06:45 1017 30.03 846 24.98 7.4 45.3 72 2.8 37
06:50 1017 30.03 846 24.98 7.4 45.4 73 3 37.4
06:55 1017 30.03 846 24.98 7.4 45.3 74 3 37.5
07:00 1017 30.03 846 24.98 7.4 45.3 73 2.9 37.3
07:05 1017 30.03 846 24.98 7.9 46.2 72 3.1 37.6
07:10 1017 30.03 846 24.98 8.6 47.5 69 3.4 38
07:15 1017 30.03 846 24.98 9.1 48.3 67 3.4 38
07:20 1017 30.03 846 24.98 9.7 49.5 61 2.7 36.9
07:25 1017 30.03 846 24.98 10.2 50.3 63 3.4 38.1
07:30 1017 30.03 846 24.98 10.3 50.5 60 2.9 37.2
07:35 1017 30.03 846 24.98 9.9 49.8 63 3.2 37.8
07:40 1017 30.03 846 24.98 10 50 62 3.2 37.7
07:45 1017 30.03 846 24.98 10.2 50.3 62 3.2 37.7
07:50 1017 30.03 846 24.98 9.8 49.6 64 3.2 37.8
07:55 1017 30.03 846 24.98 9.4 48.9 65 3.2 37.7
08:00 1017 30.03 846 24.98 9.3 48.7 65 3 37.4
08:05 1017 30.03 846 24.98 9.3 48.8 65 3 37.4
08:10 1017 30.03 846 24.98 9.7 49.5 61 2.6 36.7
08:15 1017 30.03 846 24.98 10.3 50.6 59 2.8 37
08:20 1017 30.03 846 24.98 10.1 50.2 62 3.3 38
08:25 1017 30.03 846 24.98 10.3 50.6 60 3 37.3
08:30 1017 30.03 846 24.98 10.6 51.1 60 3.3 37.9
08:35 1017 30.03 846 24.98 11.3 52.3 58 3.5 38.3
08:40 1017 30.03 846 24.98 11.2 52.1 59 3.6 38.4
08:45 1017 30.03 846 24.98 11.1 52 59 3.5 38.3
08:50 1017 30.03 846 24.98 10.7 51.3 61 3.5 38.3
08:55 1017 30.03 846 24.98 11.1 52 58 3.3 37.9
09:00 1017 30.03 846 24.98 11.7 53 57 3.5 38.3
09:05 1017 30.03 846 24.98 11.9 53.4 56 3.6 38.4
09:10 1017 30.03 846 24.98 11.7 53.1 57 3.5 38.4
09:15 1017 30.03 846 24.98 11.7 53.1 55 3.1 37.5
09:20 1017 30.03 846 24.98 12.7 54.9 53 3.4 38.1
09:25 1017 30.03 846 24.98 12.6 54.8 52 3 37.4
09:30 1017 30.03 846 24.98 12.5 54.4 51 2.6 36.7
09:35 1017 30.03 846 24.98 11.9 53.5 54 2.8 37.1
09:40 1017 30.03 846 24.98 12.3 54.1 51 2.5 36.4
09:45 1017 30.03 846 24.98 12.2 53.9 54 3.2 37.8
09:50 1017 30.03 846 24.98 11.9 53.4 51 2 35.7
09:55 1017 30.03 846 24.98 12.7 54.8 48 2.1 35.7
10:00 1017 30.03 846 24.98 13.5 56.3 47 2.6 36.6
10:05 1017 30.03 846 24.98 12.6 54.7 50 2.6 36.6
10:10 1017 30.03 846 24.98 12.4 54.3 49 2.1 35.8
10:15 1017 30.03 846 24.98 13.3 56 46 2.1 35.9
10:20 1017 30.03 846 24.98 12.5 54.5 49 2.1 35.7
10:25 1017 30.03 846 24.98 12.7 54.8 46 1.3 34.3
10:30 1017 30.03 846 24.98 13.7 56.7 44 1.6 35
10:35 1017 30.03 846 24.98 13.8 56.9 45 2.2 36
10:40 1017 30.03 846 24.98 13.7 56.7 42 1.2 34.2
10:45 1017 30.03 846 24.98 14.3 57.8 41 1.3 34.3
10:50 1017 30.03 846 24.98 13.8 56.9 42 1.3 34.4
10:55 1017 30.03 846 24.98 14.1 57.4 40 1 33.8
11:00 1017 30.03 846 24.98 14.6 58.3 40 1.3 34.4
11:05 1017 30.03 846 24.98 14.6 58.2 40 1.1 34.1
11:10 1017 30.03 846 24.98 14.2 57.5 40 1 33.8
11:15 1017 30.03 846 24.98 13.9 57.1 40 0.6 33.1
11:20 1017 30.03 846 24.98 14.3 57.7 40 1 33.7
11:25 1017 30.03 846 24.98 14.6 58.3 39 1.1 33.9
11:30 1017 30.03 846 24.98 14.7 58.5 39 1 33.8
11:35 1017 30.03 846 24.98 14.6 58.3 40 1.2 34.1
11:40 1017 30.03 846 24.98 15.1 59.1 38 0.9 33.6
11:45 1017 30.03 846 24.98 15.2 59.3 37 0.8 33.5
11:50 1017 30.03 846 24.98 15.2 59.4 37 0.6 33.1
11:55 1017 30.03 846 24.98 15.3 59.5 36 0.6 33
12:00 1017 30.03 846 24.98 15.1 59.2 37 0.7 33.3
12:05 1017 30.03 846 24.98 14.8 58.7 40 1.3 34.3
12:10 1017 30.03 846 24.98 14.3 57.8 38 0.2 32.3
12:15 1017 30.03 846 24.98 15.4 59.8 37 0.9 33.7
12:20 1017 30.03 846 24.98 15.2 59.3 39 1.3 34.4
12:25 1017 30.03 846 24.98 14.7 58.4 38 0.4 32.8
12:30 1017 30.03 846 24.98 14.9 58.8 37 0.6 33
12:35 1016 30 846 24.98 15.7 60.3 36 0.8 33.4
12:40 1017 30.03 846 24.98 15.5 59.9 33 -0.5 31
12:45 1016 30 846 24.98 15.7 60.2 34 -0.1 31.7
12:50 1016 30 846 24.98 15.7 60.3 33 -0.2 31.6
12:55 1016 30 846 24.98 16 60.9 33 -0.1 31.7
13:00 1016 30 846 24.98 16.2 61.1 32 -0.5 31.2
13:05 1016 30 846 24.98 16.6 61.8 31 -0.6 30.9
13:10 1016 30 846 24.98 17 62.6 30 -0.5 31
13:15 1016 30 846 24.98 16.8 62.2 28 -1.5 29.3
13:20 1016 30 846 24.98 16.7 62.1 29 -1.1 29.9
13:25 1016 30 846 24.98 17.1 62.7 28 -1.4 29.5
13:30 1016 30 846 24.98 16.9 62.4 29 -1 30.3
13:35 1016 30 846 24.98 16.7 62 28 -1.6 29.1
13:40 1016 30 846 24.98 17 62.6 28 -1.6 29.2
13:45 1016 30 845 24.95 17.2 62.9 27 -2 28.3
13:50 1016 30 845 24.95 17.3 63.2 27 -2 28.4
13:55 1016 30 845 24.95 17.5 63.5 27 -1.8 28.8
14:00 1016 30 845 24.95 17.4 63.4 28 -1.3 29.7
14:05 1016 30 845 24.95 17.5 63.5 26 -2.3 27.9
14:10 1016 30 845 24.95 18 64.5 27 -1.2 29.9
14:15 1016 30 845 24.95 17.7 63.9 27 -1.2 29.8
14:20 1016 30 845 24.95 17.7 63.9 24 -2.7 27.1
14:25 1016 30 845 24.95 17.8 64 27 -1.6 29.2
14:30 1016 30 845 24.95 17.4 63.2 27 -1.9 28.6
14:35 1016 30 845 24.95 17.6 63.7 26 -1.8 28.8
14:40 1016 30 845 24.95 17.4 63.4 28 -1.4 29.5
14:45 1016 30 845 24.95 17.5 63.5 26 -2.1 28.2
14:50 1016 30 845 24.95 18.1 64.6 26 -1.8 28.8
14:55 1016 30 845 24.95 17.6 63.7 26 -1.9 28.7
15:00 1016 30 845 24.95 17.6 63.7 27 -1.5 29.2
15:05 1016 30 845 24.95 17.6 63.7 26 -1.7 28.9
15:10 1016 30 845 24.95 17.8 64 25 -2.2 28
15:15 1015 29.97 845 24.95 18 64.3 26 -1.8 28.8
15:20 1015 29.97 845 24.95 18.2 64.7 25 -2 28.4
15:25 1015 29.97 845 24.95 18.4 65.2 24 -2.1 28.1
15:30 1015 29.97 845 24.95 17.7 63.9 25 -2.2 28
15:35 1015 29.97 845 24.95 17.7 63.9 24 -3.2 26.3
15:40 1015 29.97 845 24.95 18 64.4 23 -3 26.5
15:45 1015 29.97 845 24.95 17.8 64 25 -2.5 27.5
15:50 1015 29.97 845 24.95 17.5 63.6 26 -2.3 27.9
15:55 1015 29.97 845 24.95 16.8 62.3 27 -2.2 28.1
16:00 1015 29.97 845 24.95 16.6 61.8 27 -2.5 27.4
16:05 1015 29.97 845 24.95 16.5 61.6 27 -2.4 27.6
16:10 1015 29.97 845 24.95 17.1 62.8 25 -3.1 26.3
16:15 1015 29.97 845 24.95 17.5 63.6 25 -2.6 27.2
16:20 1015 29.97 845 24.95 17.5 63.5 25 -2.9 26.8
16:25 1015 29.97 845 24.95 17.7 63.8 24 -2.9 26.8
16:30 1016 30 845 24.95 17 62.5 25 -3.1 26.5
16:35 1016 30 845 24.95 17 62.6 25 -2.9 26.8
16:40 1016 30 845 24.95 17.7 63.8 26 -2.1 28.1
16:45 1016 30 845 24.95 17.4 63.2 25 -2.8 26.9
16:50 1016 30 845 24.95 17.5 63.6 25 -2.7 27.1
16:55 1016 30 845 24.95 18 64.3 25 -2.3 27.9
17:00 1015 29.97 845 24.95 18.3 64.9 23 -3.2 26.2
17:05 1015 29.97 845 24.95 18 64.4 23 -3.4 25.9
17:10 1015 29.97 845 24.95 17.8 64 23 -3.7 25.3
17:15 1015 29.97 845 24.95 17.9 64.3 22 -3.9 25
17:20 1015 29.97 845 24.95 18 64.4 22 -3.7 25.4
17:25 1015 29.97 845 24.95 18 64.4 23 -3.2 26.3
17:30 1015 29.97 845 24.95 17.7 63.8 23 -3.8 25.2
17:35 1015 29.97 845 24.95 17.7 63.9 23 -3.8 25.1
17:40 1015 29.97 845 24.95 17.3 63.1 24 -3.4 25.9
17:45 1015 29.97 845 24.95 16.7 62 25 -3.4 25.9
17:50 1015 29.97 845 24.95 16.8 62.2 25 -3.1 26.5
17:55 1015 29.97 845 24.95 16.6 62 25 -3.6 25.5
18:00 1015 29.97 845 24.95 16.9 62.3 23 -4.1 24.6
18:05 1015 29.97 845 24.95 17.4 63.4 22 -4.2 24.5
18:10 1016 30 845 24.95 17.6 63.6 22 -4.1 24.7
18:15 1016 30 845 24.95 17.1 62.8 24 -3.6 25.5
18:20 1016 30 845 24.95 16.7 62 25 -3.6 25.5
18:25 1016 30 845 24.95 16.4 61.5 25 -3.6 25.5
18:30 1016 30 845 24.95 16.3 61.3 26 -3.1 26.5
18:35 1016 30 845 24.95 16.2 61.2 27 -2.9 26.8
18:40 1016 30 845 24.95 16.1 61 27 -2.9 26.8
18:45 1016 30 845 24.95 16.1 60.9 28 -2.4 27.7
18:50 1016 30 845 24.95 16 60.9 28 -2.3 27.8
18:55 1016 30 845 24.95 15.9 60.5 28 -2.5 27.6
19:00 1016 30 845 24.95 15.8 60.5 28 -2.6 27.3
19:05 1016 30 845 24.95 15.8 60.5 28 -2.4 27.8
19:10 1016 30 845 24.95 15.8 60.4 29 -2 28.3
19:15 1016 30 845 24.95 15.6 60.2 31 -1.5 29.3
19:20 1016 30 845 24.95 15.4 59.8 32 -1.1 30
19:25 1016 30 845 24.95 15.1 59.1 37 0.8 33.4
19:30 1016 30 845 24.95 14.4 57.9 40 1.2 34.2
19:35 1016 30 845 24.95 14 57.1 42 1.2 34.2
19:40 1016 30 845 24.95 13.7 56.6 42 1.1 34
19:45 1016 30 845 24.95 13.6 56.4 43 1.2 34.2
19:50 1016 30 845 24.95 13.6 56.4 43 1.2 34.2
19:55 1016 30 845 24.95 13.6 56.5 43 1.4 34.5
20:00 1016 30 845 24.95 13.6 56.5 44 1.5 34.7
20:05 1016 30 845 24.95 13.6 56.5 43 1.5 34.7
20:10 1016 30 845 24.95 13.5 56.3 46 2 35.7
20:15 1016 30 845 24.95 13.2 55.7 46 2 35.5
20:20 1016 30 845 24.95 13.1 55.5 45 1.4 34.5
20:25 1016 30 846 24.98 13.1 55.5 44 1.2 34.2
20:30 1016 30 846 24.98 13 55.4 44 1.2 34.2
20:35 1016 30 846 24.98 13 55.4 46 1.8 35.2
20:40 1017 30.03 846 24.98 12.5 54.5 50 2.4 36.3
20:45 1017 30.03 846 24.98 12.1 53.8 51 2.3 36.2
20:50 1017 30.03 846 24.98 11.6 53 56 3.3 37.9
20:55 1017 30.03 846 24.98 11.3 52.3 55 2.6 36.7
21:00 1017 30.03 846 24.98 11.5 52.6 53 2.3 36.2
21:05 1017 30.03 846 24.98 11.6 52.8 54 2.5 36.5
21:10 1017 30.03 846 24.98 11.6 52.8 53 2.4 36.4
21:15 1017 30.03 846 24.98 11.6 52.9 53 2.4 36.3
21:20 1017 30.03 846 24.98 11.7 53 52 2.1 35.8
21:25 1017 30.03 846 24.98 11.7 53.1 53 2.6 36.6
21:30 1017 30.03 846 24.98 11.5 52.8 53 2.5 36.4
21:35 1017 30.03 846 24.98 11.5 52.8 53 2.3 36.2
21:40 1017 30.03 846 24.98 11.5 52.8 53 2.4 36.4
21:45 1017 30.03 846 24.98 11.5 52.6 54 2.5 36.6
21:50 1017 30.03 846 24.98 11.3 52.3 55 2.6 36.6
21:55 1017 30.03 846 24.98 11.1 52 55 2.5 36.6
22:00 1017 30.03 846 24.98 10.9 51.7 57 2.7 36.8
22:05 1017 30.03 846 24.98 10.8 51.4 57 2.7 36.9
22:10 1017 30.03 846 24.98 10.7 51.3 57 2.7 36.8
22:15 1017 30.03 847 25.01 10.8 51.4 57 2.7 36.8
22:20 1017 30.03 847 25.01 10.7 51.3 58 2.9 37.2
22:25 1017 30.03 847 25.01 10.5 51 57 2.5 36.5
22:30 1017 30.03 846 24.98 10.6 51.1 53 1.6 34.8
22:35 1017 30.03 846 24.98 10.9 51.5 56 2.4 36.3
22:40 1017 30.03 846 24.98 10.8 51.5 53 1.6 34.8
22:45 1017 30.03 847 25.01 11.1 52 52 1.7 35
22:50 1017 30.03 847 25.01 11.3 52.3 52 1.9 35.5
22:55 1017 30.03 847 25.01 11.2 52.2 53 2 35.7
23:00 1017 30.03 847 25.01 11.1 52 53 2 35.5
23:05 1017 30.03 847 25.01 11 51.8 53 1.9 35.3
23:10 1017 30.03 847 25.01 10.8 51.5 53 1.6 34.9
23:15 1017 30.03 847 25.01 11 51.8 51 1.3 34.4
23:20 1017 30.03 847 25.01 11.1 51.9 52 1.6 34.9
23:25 1018 30.06 847 25.01 11 51.8 52 1.6 34.9
23:30 1018 30.06 847 25.01 11 51.7 52 1.7 35
23:35 1017 30.03 847 25.01 10.9 51.5 54 1.9 35.4
23:40 1018 30.06 847 25.01 10.6 51.1 56 2.3 36.2
23:45 1018 30.06 847 25.01 10.3 50.5 57 2.1 35.8
23:50 1018 30.06 847 25.01 10.2 50.4 57 2.1 35.7
23:55 1018 30.06 847 25.01 10.2 50.3 56 1.9 35.5
24:00 1018 30.06 847 25.01 10.2 50.4 56 1.9 35.5